sensor_id;sensor_type;location;lat;lon;timestamp;temperature;humidity
1075;DHT22;526;51.392;12.448;2023-02-01T00:00:49;4.20;97.30
1075;DHT22;526;51.392;12.448;2023-02-01T00:03:15;4.10;97.30
1075;DHT22;526;51.392;12.448;2023-02-01T00:05:40;4.10;97.30
1075;DHT22;526;51.392;12.448;2023-02-01T00:08:06;4.10;97.30
1075;DHT22;526;51.392;12.448;2023-02-01T00:10:31;4.10;97.30
1075;DHT22;526;51.392;12.448;2023-02-01T00:12:57;4.10;97.30
1075;DHT22;526;51.392;12.448;2023-02-01T00:15:22;4.00;97.30
1075;DHT22;526;51.392;12.448;2023-02-01T00:17:52;4.00;97.30
1075;DHT22;526;51.392;12.448;2023-02-01T00:20:18;4.00;97.30
1075;DHT22;526;51.392;12.448;2023-02-01T00:22:43;4.00;97.30
1075;DHT22;526;51.392;12.448;2023-02-01T00:25:09;4.00;97.30
1075;DHT22;526;51.392;12.448;2023-02-01T00:27:34;4.00;97.30
1075;DHT22;526;51.392;12.448;2023-02-01T00:30:00;4.00;97.30
1075;DHT22;526;51.392;12.448;2023-02-01T00:32:25;4.00;97.30
1075;DHT22;526;51.392;12.448;2023-02-01T00:34:51;4.10;97.30
1075;DHT22;526;51.392;12.448;2023-02-01T00:37:16;4.10;97.30
1075;DHT22;526;51.392;12.448;2023-02-01T00:39:42;4.10;97.30
1075;DHT22;526;51.392;12.448;2023-02-01T00:42:07;4.10;97.30
1075;DHT22;526;51.392;12.448;2023-02-01T00:44:33;4.10;97.30
1075;DHT22;526;51.392;12.448;2023-02-01T00:47:01;4.10;97.30
1075;DHT22;526;51.392;12.448;2023-02-01T00:49:27;4.20;97.30
1075;DHT22;526;51.392;12.448;2023-02-01T00:51:52;4.10;97.30
1075;DHT22;526;51.392;12.448;2023-02-01T00:54:18;4.20;97.30
1075;DHT22;526;51.392;12.448;2023-02-01T00:56:43;4.20;97.30
1075;DHT22;526;51.392;12.448;2023-02-01T00:59:12;4.20;97.30
1075;DHT22;526;51.392;12.448;2023-02-01T01:01:37;4.20;97.30
1075;DHT22;526;51.392;12.448;2023-02-01T01:04:03;4.20;97.30
1075;DHT22;526;51.392;12.448;2023-02-01T01:06:31;4.20;97.30
1075;DHT22;526;51.392;12.448;2023-02-01T01:09:00;4.30;97.30
1075;DHT22;526;51.392;12.448;2023-02-01T01:11:28;4.30;97.30
1075;DHT22;526;51.392;12.448;2023-02-01T01:13:55;4.30;97.30
1075;DHT22;526;51.392;12.448;2023-02-01T01:16:23;4.30;97.30
1075;DHT22;526;51.392;12.448;2023-02-01T01:18:49;4.40;97.30
1075;DHT22;526;51.392;12.448;2023-02-01T01:21:15;4.40;97.30
1075;DHT22;526;51.392;12.448;2023-02-01T01:23:41;4.40;97.30
1075;DHT22;526;51.392;12.448;2023-02-01T01:26:09;4.40;97.30
1075;DHT22;526;51.392;12.448;2023-02-01T01:28:35;4.40;97.30
1075;DHT22;526;51.392;12.448;2023-02-01T01:31:01;4.40;97.30
1075;DHT22;526;51.392;12.448;2023-02-01T01:33:26;4.40;97.30
1075;DHT22;526;51.392;12.448;2023-02-01T01:35:52;4.40;97.30
1075;DHT22;526;51.392;12.448;2023-02-01T01:38:17;4.50;97.30
1075;DHT22;526;51.392;12.448;2023-02-01T01:40:46;4.50;97.30
1075;DHT22;526;51.392;12.448;2023-02-01T01:43:14;4.50;97.30
1075;DHT22;526;51.392;12.448;2023-02-01T01:45:40;4.50;97.30
1075;DHT22;526;51.392;12.448;2023-02-01T01:48:08;4.50;97.30
1075;DHT22;526;51.392;12.448;2023-02-01T01:50:45;4.40;97.30
1075;DHT22;526;51.392;12.448;2023-02-01T01:53:16;4.40;97.30
1075;DHT22;526;51.392;12.448;2023-02-01T01:55:44;4.40;97.30
1075;DHT22;526;51.392;12.448;2023-02-01T01:58:16;4.40;97.30
1075;DHT22;526;51.392;12.448;2023-02-01T02:00:44;4.40;97.30
1075;DHT22;526;51.392;12.448;2023-02-01T02:03:25;4.30;97.30
1075;DHT22;526;51.392;12.448;2023-02-01T02:05:54;4.40;97.30
1075;DHT22;526;51.392;12.448;2023-02-01T02:08:21;4.40;97.30
1075;DHT22;526;51.392;12.448;2023-02-01T02:10:48;4.40;97.30
1075;DHT22;526;51.392;12.448;2023-02-01T02:13:48;4.40;97.30
1075;DHT22;526;51.392;12.448;2023-02-01T02:16:39;4.40;97.30
1075;DHT22;526;51.392;12.448;2023-02-01T02:30:44;4.30;97.30
1075;DHT22;526;51.392;12.448;2023-02-01T02:33:47;4.30;97.30
1075;DHT22;526;51.392;12.448;2023-02-01T02:39:15;4.40;97.30
1075;DHT22;526;51.392;12.448;2023-02-01T02:42:04;4.40;97.30
1075;DHT22;526;51.392;12.448;2023-02-01T02:45:13;4.40;97.30
1075;DHT22;526;51.392;12.448;2023-02-01T02:48:17;4.40;97.30
1075;DHT22;526;51.392;12.448;2023-02-01T02:54:17;4.40;97.30
1075;DHT22;526;51.392;12.448;2023-02-01T02:57:04;4.40;97.30
1075;DHT22;526;51.392;12.448;2023-02-01T02:59:50;4.40;97.30
1075;DHT22;526;51.392;12.448;2023-02-01T03:02:35;4.40;97.30
1075;DHT22;526;51.392;12.448;2023-02-01T03:05:19;4.40;97.30
1075;DHT22;526;51.392;12.448;2023-02-01T03:07:57;4.40;97.30
1075;DHT22;526;51.392;12.448;2023-02-01T03:18:53;4.40;97.30
1075;DHT22;526;51.392;12.448;2023-02-01T03:21:41;4.50;97.30
1075;DHT22;526;51.392;12.448;2023-02-01T03:24:12;4.50;97.30
1075;DHT22;526;51.392;12.448;2023-02-01T03:26:42;4.50;97.30
1075;DHT22;526;51.392;12.448;2023-02-01T03:29:13;4.60;97.30
1075;DHT22;526;51.392;12.448;2023-02-01T03:31:40;4.60;97.30
1075;DHT22;526;51.392;12.448;2023-02-01T03:34:05;4.60;97.30
1075;DHT22;526;51.392;12.448;2023-02-01T03:36:46;4.60;97.30
1075;DHT22;526;51.392;12.448;2023-02-01T03:39:16;4.60;97.30
1075;DHT22;526;51.392;12.448;2023-02-01T03:41:49;4.60;97.30
1075;DHT22;526;51.392;12.448;2023-02-01T03:44:31;4.60;97.30
1075;DHT22;526;51.392;12.448;2023-02-01T03:47:08;4.60;97.30
1075;DHT22;526;51.392;12.448;2023-02-01T03:49:55;4.60;97.30
1075;DHT22;526;51.392;12.448;2023-02-01T03:52:32;4.60;97.30
1075;DHT22;526;51.392;12.448;2023-02-01T03:55:01;4.70;97.30
1075;DHT22;526;51.392;12.448;2023-02-01T03:57:31;4.70;97.30
1075;DHT22;526;51.392;12.448;2023-02-01T04:00:14;4.70;97.30
1075;DHT22;526;51.392;12.448;2023-02-01T04:02:41;4.70;97.30
1075;DHT22;526;51.392;12.448;2023-02-01T04:05:07;4.70;97.30
1075;DHT22;526;51.392;12.448;2023-02-01T04:07:33;4.70;97.30
1075;DHT22;526;51.392;12.448;2023-02-01T04:09:58;4.70;97.30
1075;DHT22;526;51.392;12.448;2023-02-01T04:12:24;4.70;97.30
1075;DHT22;526;51.392;12.448;2023-02-01T04:14:49;4.70;97.30
1075;DHT22;526;51.392;12.448;2023-02-01T04:17:15;4.70;97.30
1075;DHT22;526;51.392;12.448;2023-02-01T04:19:40;4.70;97.30
1075;DHT22;526;51.392;12.448;2023-02-01T04:22:06;4.70;97.30
1075;DHT22;526;51.392;12.448;2023-02-01T04:24:31;4.70;97.30
1075;DHT22;526;51.392;12.448;2023-02-01T04:26:57;4.70;97.30
1075;DHT22;526;51.392;12.448;2023-02-01T04:29:22;4.70;97.30
1075;DHT22;526;51.392;12.448;2023-02-01T04:31:47;4.80;97.30
1075;DHT22;526;51.392;12.448;2023-02-01T04:34:14;4.70;97.30
1075;DHT22;526;51.392;12.448;2023-02-01T04:36:40;4.70;97.30
1075;DHT22;526;51.392;12.448;2023-02-01T04:39:05;4.70;97.30
1075;DHT22;526;51.392;12.448;2023-02-01T04:41:31;4.70;97.30
1075;DHT22;526;51.392;12.448;2023-02-01T04:43:56;4.70;97.30
1075;DHT22;526;51.392;12.448;2023-02-01T04:46:22;4.70;97.30
1075;DHT22;526;51.392;12.448;2023-02-01T04:48:47;4.80;97.30
1075;DHT22;526;51.392;12.448;2023-02-01T04:51:13;4.70;97.30
1075;DHT22;526;51.392;12.448;2023-02-01T04:53:40;4.70;97.30
1075;DHT22;526;51.392;12.448;2023-02-01T04:56:06;4.70;97.30
1075;DHT22;526;51.392;12.448;2023-02-01T04:58:32;4.70;97.30
1075;DHT22;526;51.392;12.448;2023-02-01T05:00:57;4.70;97.30
1075;DHT22;526;51.392;12.448;2023-02-01T05:03:23;4.70;97.30
1075;DHT22;526;51.392;12.448;2023-02-01T05:05:48;4.70;97.30
1075;DHT22;526;51.392;12.448;2023-02-01T05:08:14;4.70;97.30
1075;DHT22;526;51.392;12.448;2023-02-01T05:10:40;4.70;97.30
1075;DHT22;526;51.392;12.448;2023-02-01T05:13:07;4.70;97.30
1075;DHT22;526;51.392;12.448;2023-02-01T05:15:51;4.70;97.30
1075;DHT22;526;51.392;12.448;2023-02-01T05:18:16;4.70;97.30
1075;DHT22;526;51.392;12.448;2023-02-01T05:20:42;4.70;97.30
1075;DHT22;526;51.392;12.448;2023-02-01T05:23:07;4.70;97.30
1075;DHT22;526;51.392;12.448;2023-02-01T05:25:33;4.70;97.30
1075;DHT22;526;51.392;12.448;2023-02-01T05:27:58;4.70;97.30
1075;DHT22;526;51.392;12.448;2023-02-01T05:30:24;4.70;97.30
1075;DHT22;526;51.392;12.448;2023-02-01T05:32:51;4.70;97.30
1075;DHT22;526;51.392;12.448;2023-02-01T05:35:16;4.70;97.30
1075;DHT22;526;51.392;12.448;2023-02-01T05:37:42;4.70;97.30
1075;DHT22;526;51.392;12.448;2023-02-01T05:40:08;4.70;97.30
1075;DHT22;526;51.392;12.448;2023-02-01T05:42:33;4.70;97.30
1075;DHT22;526;51.392;12.448;2023-02-01T05:44:59;4.70;97.30
1075;DHT22;526;51.392;12.448;2023-02-01T05:47:24;4.70;97.30
1075;DHT22;526;51.392;12.448;2023-02-01T05:49:50;4.60;97.30
1075;DHT22;526;51.392;12.448;2023-02-01T05:52:15;4.60;97.30
1075;DHT22;526;51.392;12.448;2023-02-01T05:54:45;4.60;97.30
1075;DHT22;526;51.392;12.448;2023-02-01T05:57:11;4.60;97.30
1075;DHT22;526;51.392;12.448;2023-02-01T05:59:38;4.60;97.30
1075;DHT22;526;51.392;12.448;2023-02-01T06:02:06;4.60;97.30
1075;DHT22;526;51.392;12.448;2023-02-01T06:04:32;4.60;97.30
1075;DHT22;526;51.392;12.448;2023-02-01T06:06:57;4.60;97.30
1075;DHT22;526;51.392;12.448;2023-02-01T06:09:23;4.60;97.30
1075;DHT22;526;51.392;12.448;2023-02-01T06:11:48;4.60;97.30
1075;DHT22;526;51.392;12.448;2023-02-01T06:14:14;4.60;97.30
1075;DHT22;526;51.392;12.448;2023-02-01T06:16:39;4.60;97.30
1075;DHT22;526;51.392;12.448;2023-02-01T06:19:05;4.60;97.30
1075;DHT22;526;51.392;12.448;2023-02-01T06:21:30;4.60;97.30
1075;DHT22;526;51.392;12.448;2023-02-01T06:23:56;4.60;97.30
1075;DHT22;526;51.392;12.448;2023-02-01T06:26:22;4.60;97.30
1075;DHT22;526;51.392;12.448;2023-02-01T06:28:48;4.60;97.30
1075;DHT22;526;51.392;12.448;2023-02-01T06:31:14;4.60;97.30
1075;DHT22;526;51.392;12.448;2023-02-01T06:33:40;4.60;97.30
1075;DHT22;526;51.392;12.448;2023-02-01T06:36:07;4.60;97.30
1075;DHT22;526;51.392;12.448;2023-02-01T06:38:33;4.60;97.30
1075;DHT22;526;51.392;12.448;2023-02-01T06:41:02;4.50;97.30
1075;DHT22;526;51.392;12.448;2023-02-01T06:43:28;4.60;97.30
1075;DHT22;526;51.392;12.448;2023-02-01T06:46:05;4.50;97.30
1075;DHT22;526;51.392;12.448;2023-02-01T06:48:31;4.50;97.30
1075;DHT22;526;51.392;12.448;2023-02-01T06:50:56;4.60;97.30
1075;DHT22;526;51.392;12.448;2023-02-01T06:53:22;4.60;97.30
1075;DHT22;526;51.392;12.448;2023-02-01T06:55:52;4.60;97.30
1075;DHT22;526;51.392;12.448;2023-02-01T06:58:17;4.60;97.30
1075;DHT22;526;51.392;12.448;2023-02-01T07:00:43;4.70;97.30
1075;DHT22;526;51.392;12.448;2023-02-01T07:03:08;4.70;97.30
1075;DHT22;526;51.392;12.448;2023-02-01T07:05:34;4.70;97.30
1075;DHT22;526;51.392;12.448;2023-02-01T07:07:59;4.80;97.30
1075;DHT22;526;51.392;12.448;2023-02-01T07:10:25;4.80;97.30
1075;DHT22;526;51.392;12.448;2023-02-01T07:12:50;4.80;97.30
1075;DHT22;526;51.392;12.448;2023-02-01T07:15:16;4.80;97.30
1075;DHT22;526;51.392;12.448;2023-02-01T07:18:11;4.90;97.30
1075;DHT22;526;51.392;12.448;2023-02-01T07:20:39;4.90;97.30
1075;DHT22;526;51.392;12.448;2023-02-01T07:23:10;5.00;97.30
1075;DHT22;526;51.392;12.448;2023-02-01T07:25:39;5.00;97.30
1075;DHT22;526;51.392;12.448;2023-02-01T07:28:10;5.00;97.30
1075;DHT22;526;51.392;12.448;2023-02-01T07:30:39;5.00;97.30
1075;DHT22;526;51.392;12.448;2023-02-01T07:33:20;5.00;97.30
1075;DHT22;526;51.392;12.448;2023-02-01T07:42:51;5.10;97.30
1075;DHT22;526;51.392;12.448;2023-02-01T07:45:29;5.10;97.30
1075;DHT22;526;51.392;12.448;2023-02-01T07:47:55;5.10;97.30
1075;DHT22;526;51.392;12.448;2023-02-01T07:50:20;5.20;97.30
1075;DHT22;526;51.392;12.448;2023-02-01T07:52:46;5.20;97.30
1075;DHT22;526;51.392;12.448;2023-02-01T07:55:11;5.20;97.30
1075;DHT22;526;51.392;12.448;2023-02-01T07:57:37;5.20;97.30
1075;DHT22;526;51.392;12.448;2023-02-01T08:00:03;5.30;97.30
1075;DHT22;526;51.392;12.448;2023-02-01T08:02:47;5.30;97.30
1075;DHT22;526;51.392;12.448;2023-02-01T08:05:13;5.30;97.30
1075;DHT22;526;51.392;12.448;2023-02-01T08:07:38;5.40;97.30
1075;DHT22;526;51.392;12.448;2023-02-01T08:10:04;5.30;97.30
1075;DHT22;526;51.392;12.448;2023-02-01T08:12:36;5.40;97.30
1075;DHT22;526;51.392;12.448;2023-02-01T08:15:01;5.40;97.30
1075;DHT22;526;51.392;12.448;2023-02-01T08:17:27;5.40;97.30
1075;DHT22;526;51.392;12.448;2023-02-01T08:19:53;5.40;97.30
1075;DHT22;526;51.392;12.448;2023-02-01T08:22:19;5.40;97.30
1075;DHT22;526;51.392;12.448;2023-02-01T08:24:47;5.30;97.30
1075;DHT22;526;51.392;12.448;2023-02-01T08:27:13;5.30;97.30
1075;DHT22;526;51.392;12.448;2023-02-01T08:29:39;5.30;97.30
1075;DHT22;526;51.392;12.448;2023-02-01T08:32:04;5.30;97.30
1075;DHT22;526;51.392;12.448;2023-02-01T08:34:30;5.20;97.30
1075;DHT22;526;51.392;12.448;2023-02-01T08:36:55;5.20;97.30
1075;DHT22;526;51.392;12.448;2023-02-01T08:39:25;5.10;97.30
1075;DHT22;526;51.392;12.448;2023-02-01T08:41:51;5.10;97.30
1075;DHT22;526;51.392;12.448;2023-02-01T08:44:39;5.10;97.30
1075;DHT22;526;51.392;12.448;2023-02-01T08:47:05;5.00;97.30
1075;DHT22;526;51.392;12.448;2023-02-01T08:49:30;4.90;97.30
1075;DHT22;526;51.392;12.448;2023-02-01T08:51:56;4.70;97.30
1075;DHT22;526;51.392;12.448;2023-02-01T08:54:21;4.60;97.30
1075;DHT22;526;51.392;12.448;2023-02-01T08:56:47;4.40;97.30
1075;DHT22;526;51.392;12.448;2023-02-01T08:59:12;4.30;97.30
1075;DHT22;526;51.392;12.448;2023-02-01T09:01:38;4.20;97.30
1075;DHT22;526;51.392;12.448;2023-02-01T09:04:03;4.20;97.30
1075;DHT22;526;51.392;12.448;2023-02-01T09:06:29;4.10;97.30
1075;DHT22;526;51.392;12.448;2023-02-01T09:08:55;4.10;97.30
1075;DHT22;526;51.392;12.448;2023-02-01T09:11:20;4.10;97.30
1075;DHT22;526;51.392;12.448;2023-02-01T09:13:47;4.10;97.30
1075;DHT22;526;51.392;12.448;2023-02-01T09:16:13;4.10;97.30
1075;DHT22;526;51.392;12.448;2023-02-01T09:18:41;4.10;97.30
1075;DHT22;526;51.392;12.448;2023-02-01T09:21:07;4.10;97.30
1075;DHT22;526;51.392;12.448;2023-02-01T09:23:33;4.10;97.30
1075;DHT22;526;51.392;12.448;2023-02-01T09:26:00;4.10;97.30
1075;DHT22;526;51.392;12.448;2023-02-01T09:28:26;4.10;97.30
1075;DHT22;526;51.392;12.448;2023-02-01T09:30:56;4.10;97.30
1075;DHT22;526;51.392;12.448;2023-02-01T09:33:21;4.20;97.30
1075;DHT22;526;51.392;12.448;2023-02-01T09:35:49;4.20;97.30
1075;DHT22;526;51.392;12.448;2023-02-01T09:38:14;4.20;97.30
1075;DHT22;526;51.392;12.448;2023-02-01T09:40:42;4.30;97.30
1075;DHT22;526;51.392;12.448;2023-02-01T09:46:07;4.30;97.30
1075;DHT22;526;51.392;12.448;2023-02-01T09:48:39;4.40;97.30
1075;DHT22;526;51.392;12.448;2023-02-01T09:51:15;4.50;97.30
1075;DHT22;526;51.392;12.448;2023-02-01T09:53:44;4.50;97.30
1075;DHT22;526;51.392;12.448;2023-02-01T09:56:20;4.60;97.30
1075;DHT22;526;51.392;12.448;2023-02-01T10:01:27;4.70;97.30
1075;DHT22;526;51.392;12.448;2023-02-01T10:04:23;4.80;97.30
1075;DHT22;526;51.392;12.448;2023-02-01T10:07:06;4.80;97.30
1075;DHT22;526;51.392;12.448;2023-02-01T10:09:49;4.90;97.30
1075;DHT22;526;51.392;12.448;2023-02-01T10:12:46;5.00;97.30
1075;DHT22;526;51.392;12.448;2023-02-01T10:18:12;5.10;97.30
1075;DHT22;526;51.392;12.448;2023-02-01T10:26:24;5.40;97.30
1075;DHT22;526;51.392;12.448;2023-02-01T10:29:01;5.40;97.30
1075;DHT22;526;51.392;12.448;2023-02-01T10:31:36;5.50;97.30
1075;DHT22;526;51.392;12.448;2023-02-01T10:34:25;5.50;97.30
1075;DHT22;526;51.392;12.448;2023-02-01T10:36:57;5.60;97.30
1075;DHT22;526;51.392;12.448;2023-02-01T10:39:25;5.70;97.30
1075;DHT22;526;51.392;12.448;2023-02-01T10:41:50;5.80;97.30
1075;DHT22;526;51.392;12.448;2023-02-01T10:44:25;5.90;97.30
1075;DHT22;526;51.392;12.448;2023-02-01T10:46:51;5.90;97.30
1075;DHT22;526;51.392;12.448;2023-02-01T10:49:26;6.00;97.30
1075;DHT22;526;51.392;12.448;2023-02-01T10:52:02;5.90;97.30
1075;DHT22;526;51.392;12.448;2023-02-01T10:54:37;6.00;97.30
1075;DHT22;526;51.392;12.448;2023-02-01T10:57:10;6.00;97.30
1075;DHT22;526;51.392;12.448;2023-02-01T10:59:37;6.10;97.30
1075;DHT22;526;51.392;12.448;2023-02-01T11:02:19;6.20;97.30
1075;DHT22;526;51.392;12.448;2023-02-01T11:04:45;6.30;97.30
1075;DHT22;526;51.392;12.448;2023-02-01T11:07:23;6.40;97.30
1075;DHT22;526;51.392;12.448;2023-02-01T11:09:54;6.50;97.30
1075;DHT22;526;51.392;12.448;2023-02-01T11:12:27;6.60;97.30
1075;DHT22;526;51.392;12.448;2023-02-01T11:15:02;6.80;97.30
1075;DHT22;526;51.392;12.448;2023-02-01T11:17:34;6.90;97.30
1075;DHT22;526;51.392;12.448;2023-02-01T11:20:03;7.10;97.30
1075;DHT22;526;51.392;12.448;2023-02-01T11:22:29;7.20;97.30
1075;DHT22;526;51.392;12.448;2023-02-01T11:24:59;7.20;97.30
1075;DHT22;526;51.392;12.448;2023-02-01T11:27:27;7.10;97.30
1075;DHT22;526;51.392;12.448;2023-02-01T11:30:01;7.00;97.30
1075;DHT22;526;51.392;12.448;2023-02-01T11:32:30;6.90;97.30
1075;DHT22;526;51.392;12.448;2023-02-01T11:38:32;6.90;97.30
1075;DHT22;526;51.392;12.448;2023-02-01T11:41:39;6.90;97.30
1075;DHT22;526;51.392;12.448;2023-02-01T11:44:40;7.00;97.30
1075;DHT22;526;51.392;12.448;2023-02-01T11:49:52;7.20;97.30
1075;DHT22;526;51.392;12.448;2023-02-01T11:55:29;7.10;97.30
1075;DHT22;526;51.392;12.448;2023-02-01T12:00:46;7.00;97.30
1075;DHT22;526;51.392;12.448;2023-02-01T12:06:55;6.90;97.30
1075;DHT22;526;51.392;12.448;2023-02-01T12:09:34;6.90;97.30
1075;DHT22;526;51.392;12.448;2023-02-01T12:20:43;7.10;97.30
1075;DHT22;526;51.392;12.448;2023-02-01T12:26:35;7.10;97.30
1075;DHT22;526;51.392;12.448;2023-02-01T12:29:36;7.20;97.30
1075;DHT22;526;51.392;12.448;2023-02-01T12:35:27;7.20;97.30
1075;DHT22;526;51.392;12.448;2023-02-01T12:38:33;7.20;97.30
1075;DHT22;526;51.392;12.448;2023-02-01T12:43:49;7.20;97.20
1075;DHT22;526;51.392;12.448;2023-02-01T12:46:35;7.20;97.00
1075;DHT22;526;51.392;12.448;2023-02-01T12:49:05;7.30;97.10
1075;DHT22;526;51.392;12.448;2023-02-01T12:51:40;7.30;96.80
1075;DHT22;526;51.392;12.448;2023-02-01T12:54:14;7.30;96.60
1075;DHT22;526;51.392;12.448;2023-02-01T12:56:44;7.30;96.30
1075;DHT22;526;51.392;12.448;2023-02-01T12:59:28;7.30;96.20
1075;DHT22;526;51.392;12.448;2023-02-01T13:02:05;7.30;96.20
1075;DHT22;526;51.392;12.448;2023-02-01T13:04:42;7.30;96.70
1075;DHT22;526;51.392;12.448;2023-02-01T13:07:16;7.20;96.10
1075;DHT22;526;51.392;12.448;2023-02-01T13:09:50;7.20;95.80
1075;DHT22;526;51.392;12.448;2023-02-01T13:12:28;7.20;95.90
1075;DHT22;526;51.392;12.448;2023-02-01T13:15:27;7.20;95.40
1075;DHT22;526;51.392;12.448;2023-02-01T13:17:57;7.20;95.30
1075;DHT22;526;51.392;12.448;2023-02-01T13:20:42;7.20;95.10
1075;DHT22;526;51.392;12.448;2023-02-01T13:23:22;7.20;94.80
1075;DHT22;526;51.392;12.448;2023-02-01T13:25:51;7.20;95.20
1075;DHT22;526;51.392;12.448;2023-02-01T13:39:48;7.00;94.70
1075;DHT22;526;51.392;12.448;2023-02-01T13:42:28;7.00;95.00
1075;DHT22;526;51.392;12.448;2023-02-01T13:45:04;7.00;94.80
1075;DHT22;526;51.392;12.448;2023-02-01T13:47:39;7.00;94.80
1075;DHT22;526;51.392;12.448;2023-02-01T13:50:21;7.10;94.70
1075;DHT22;526;51.392;12.448;2023-02-01T13:52:57;7.10;94.80
1075;DHT22;526;51.392;12.448;2023-02-01T13:55:27;7.10;94.90
1075;DHT22;526;51.392;12.448;2023-02-01T13:58:03;7.10;94.40
1075;DHT22;526;51.392;12.448;2023-02-01T14:00:35;7.10;94.20
1075;DHT22;526;51.392;12.448;2023-02-01T14:16:10;7.00;94.70
1075;DHT22;526;51.392;12.448;2023-02-01T14:21:25;6.90;96.30
1075;DHT22;526;51.392;12.448;2023-02-01T14:31:59;6.90;97.30
1075;DHT22;526;51.392;12.448;2023-02-01T14:34:40;6.90;97.30
1075;DHT22;526;51.392;12.448;2023-02-01T14:47:40;7.10;97.30
1075;DHT22;526;51.392;12.448;2023-02-01T14:52:47;7.00;97.30
1075;DHT22;526;51.392;12.448;2023-02-01T14:55:24;7.00;97.30
1075;DHT22;526;51.392;12.448;2023-02-01T14:57:53;7.00;97.30
1075;DHT22;526;51.392;12.448;2023-02-01T15:00:26;6.90;97.30
1075;DHT22;526;51.392;12.448;2023-02-01T15:02:54;6.90;97.30
1075;DHT22;526;51.392;12.448;2023-02-01T15:05:27;6.90;97.30
1075;DHT22;526;51.392;12.448;2023-02-01T15:07:58;6.90;97.30
1075;DHT22;526;51.392;12.448;2023-02-01T15:10:24;6.90;97.30
1075;DHT22;526;51.392;12.448;2023-02-01T15:12:50;6.80;97.30
1075;DHT22;526;51.392;12.448;2023-02-01T15:15:19;6.70;97.30
1075;DHT22;526;51.392;12.448;2023-02-01T15:17:54;6.60;97.30
1075;DHT22;526;51.392;12.448;2023-02-01T15:20:23;6.40;97.30
1075;DHT22;526;51.392;12.448;2023-02-01T15:22:54;6.40;97.30
1075;DHT22;526;51.392;12.448;2023-02-01T15:25:23;6.40;97.30
1075;DHT22;526;51.392;12.448;2023-02-01T15:27:49;6.40;97.30
1075;DHT22;526;51.392;12.448;2023-02-01T15:30:30;6.30;97.30
1075;DHT22;526;51.392;12.448;2023-02-01T15:33:08;6.30;97.30
1075;DHT22;526;51.392;12.448;2023-02-01T15:35:54;6.30;97.30
1075;DHT22;526;51.392;12.448;2023-02-01T15:46:08;6.10;97.30
1075;DHT22;526;51.392;12.448;2023-02-01T15:48:38;6.10;97.30
1075;DHT22;526;51.392;12.448;2023-02-01T15:51:04;6.00;97.30
1075;DHT22;526;51.392;12.448;2023-02-01T15:53:31;6.00;97.30
1075;DHT22;526;51.392;12.448;2023-02-01T15:56:01;6.00;97.30
1075;DHT22;526;51.392;12.448;2023-02-01T15:58:29;6.00;97.30
1075;DHT22;526;51.392;12.448;2023-02-01T16:01:03;6.00;97.30
1075;DHT22;526;51.392;12.448;2023-02-01T16:03:34;5.90;97.30
1075;DHT22;526;51.392;12.448;2023-02-01T16:06:02;5.80;97.30
1075;DHT22;526;51.392;12.448;2023-02-01T16:08:30;4.70;97.30
1075;DHT22;526;51.392;12.448;2023-02-01T16:13:35;2.80;97.30
1075;DHT22;526;51.392;12.448;2023-02-01T16:16:01;2.50;97.30
1075;DHT22;526;51.392;12.448;2023-02-01T16:18:26;2.30;97.30
1075;DHT22;526;51.392;12.448;2023-02-01T16:20:52;2.20;97.30
1075;DHT22;526;51.392;12.448;2023-02-01T16:23:20;2.20;97.30
1075;DHT22;526;51.392;12.448;2023-02-01T16:25:48;2.20;97.30
1075;DHT22;526;51.392;12.448;2023-02-01T16:28:13;2.20;97.30
1075;DHT22;526;51.392;12.448;2023-02-01T16:30:39;2.30;97.30
1075;DHT22;526;51.392;12.448;2023-02-01T16:33:05;2.30;97.30
1075;DHT22;526;51.392;12.448;2023-02-01T16:35:40;2.30;97.30
1075;DHT22;526;51.392;12.448;2023-02-01T16:38:21;2.40;97.30
1075;DHT22;526;51.392;12.448;2023-02-01T16:41:00;2.40;97.30
1075;DHT22;526;51.392;12.448;2023-02-01T16:43:31;2.40;97.30
1075;DHT22;526;51.392;12.448;2023-02-01T16:46:00;2.40;97.30
1075;DHT22;526;51.392;12.448;2023-02-01T16:48:30;2.40;97.30
1075;DHT22;526;51.392;12.448;2023-02-01T16:50:58;2.50;97.30
1075;DHT22;526;51.392;12.448;2023-02-01T16:53:26;2.50;97.30
1075;DHT22;526;51.392;12.448;2023-02-01T16:55:56;2.50;97.30
1075;DHT22;526;51.392;12.448;2023-02-01T16:58:23;2.50;97.30
1075;DHT22;526;51.392;12.448;2023-02-01T17:00:53;2.60;97.30
1075;DHT22;526;51.392;12.448;2023-02-01T17:03:42;2.60;97.30
1075;DHT22;526;51.392;12.448;2023-02-01T17:09:39;2.80;97.30
1075;DHT22;526;51.392;12.448;2023-02-01T17:12:31;2.80;97.30
1075;DHT22;526;51.392;12.448;2023-02-01T17:15:00;2.90;97.30
1075;DHT22;526;51.392;12.448;2023-02-01T17:21:02;2.90;97.30
1075;DHT22;526;51.392;12.448;2023-02-01T17:23:58;2.90;97.30
1075;DHT22;526;51.392;12.448;2023-02-01T17:26:29;2.80;97.30
1075;DHT22;526;51.392;12.448;2023-02-01T17:29:11;2.80;97.30
1075;DHT22;526;51.392;12.448;2023-02-01T17:32:11;2.80;97.30
1075;DHT22;526;51.392;12.448;2023-02-01T17:40:00;2.70;97.30
1075;DHT22;526;51.392;12.448;2023-02-01T17:42:52;2.70;97.30
1075;DHT22;526;51.392;12.448;2023-02-01T17:45:43;2.60;97.30
1075;DHT22;526;51.392;12.448;2023-02-01T17:48:40;2.60;97.30
1075;DHT22;526;51.392;12.448;2023-02-01T17:51:31;2.70;97.30
1075;DHT22;526;51.392;12.448;2023-02-01T17:54:00;2.70;97.30
1075;DHT22;526;51.392;12.448;2023-02-01T17:56:35;2.70;97.30
1075;DHT22;526;51.392;12.448;2023-02-01T17:59:03;2.80;97.30
1075;DHT22;526;51.392;12.448;2023-02-01T18:01:32;2.80;97.30
1075;DHT22;526;51.392;12.448;2023-02-01T18:03:58;2.80;97.30
1075;DHT22;526;51.392;12.448;2023-02-01T18:06:25;2.80;97.30
1075;DHT22;526;51.392;12.448;2023-02-01T18:08:51;2.80;97.30
1075;DHT22;526;51.392;12.448;2023-02-01T18:11:20;2.80;97.30
1075;DHT22;526;51.392;12.448;2023-02-01T18:13:52;2.80;97.30
1075;DHT22;526;51.392;12.448;2023-02-01T18:19:46;2.80;97.30
1075;DHT22;526;51.392;12.448;2023-02-01T18:22:22;2.80;97.30
1075;DHT22;526;51.392;12.448;2023-02-01T18:24:48;2.80;97.30
1075;DHT22;526;51.392;12.448;2023-02-01T18:27:15;2.70;97.30
1075;DHT22;526;51.392;12.448;2023-02-01T18:32:43;2.70;97.30
1075;DHT22;526;51.392;12.448;2023-02-01T18:35:37;2.60;97.30
1075;DHT22;526;51.392;12.448;2023-02-01T18:38:08;2.60;97.30
1075;DHT22;526;51.392;12.448;2023-02-01T18:40:56;2.60;97.30
1075;DHT22;526;51.392;12.448;2023-02-01T18:43:40;2.60;97.30
1075;DHT22;526;51.392;12.448;2023-02-01T18:46:23;2.60;97.30
1075;DHT22;526;51.392;12.448;2023-02-01T18:55:57;2.60;97.30
1075;DHT22;526;51.392;12.448;2023-02-01T18:58:33;2.60;97.30
1075;DHT22;526;51.392;12.448;2023-02-01T19:01:06;2.60;97.30
1075;DHT22;526;51.392;12.448;2023-02-01T19:03:33;2.60;97.30
1075;DHT22;526;51.392;12.448;2023-02-01T19:05:58;2.60;97.30
1075;DHT22;526;51.392;12.448;2023-02-01T19:08:24;2.60;97.30
1075;DHT22;526;51.392;12.448;2023-02-01T19:10:50;2.60;97.30
1075;DHT22;526;51.392;12.448;2023-02-01T19:13:16;2.70;97.30
1075;DHT22;526;51.392;12.448;2023-02-01T19:15:45;2.70;97.30
1075;DHT22;526;51.392;12.448;2023-02-01T19:18:11;2.70;97.30
1075;DHT22;526;51.392;12.448;2023-02-01T19:20:37;2.70;97.30
1075;DHT22;526;51.392;12.448;2023-02-01T19:23:10;2.70;97.30
1075;DHT22;526;51.392;12.448;2023-02-01T19:25:36;2.70;97.30
1075;DHT22;526;51.392;12.448;2023-02-01T19:28:01;2.80;97.30